createdAt,value
2022-08-22T00:00:29.264Z,16.50
2022-08-22T00:02:44.176Z,17.50
2022-08-22T00:06:00.234Z,16.50
2022-08-22T00:08:33.447Z,16.50
2022-08-22T00:11:07.122Z,16.50
2022-08-22T00:13:41.957Z,16.50
2022-08-22T00:16:18.717Z,16.60
2022-08-22T00:18:54.617Z,16.60
2022-08-22T00:21:30.521Z,16.50
2022-08-22T00:24:14.225Z,16.60
2022-08-22T00:26:46.971Z,16.60
2022-08-22T00:29:19.308Z,16.40
2022-08-22T00:31:52.151Z,16.30
2022-08-22T00:34:30.766Z,16.30
2022-08-22T00:37:04.109Z,16.30
2022-08-22T00:39:39.763Z,16.30
2022-08-22T00:42:49.868Z,16.30
2022-08-22T00:45:42.313Z,16.20
2022-08-22T00:48:36.179Z,16.20
2022-08-22T00:51:24.811Z,16.10
2022-08-22T00:53:57.871Z,16.10
2022-08-22T00:56:52.628Z,16.00
2022-08-22T01:00:00.337Z,15.90
2022-08-22T01:02:37.889Z,15.70
2022-08-22T01:05:26.675Z,15.60
2022-08-22T01:08:13.350Z,15.60
2022-08-22T01:14:52.897Z,15.60
2022-08-22T01:17:57.714Z,15.70
2022-08-22T01:21:02.136Z,15.80
2022-08-22T01:24:15.561Z,15.80
2022-08-22T01:27:17.503Z,15.80
2022-08-22T01:30:12.690Z,15.80
2022-08-22T01:33:12.129Z,15.90
2022-08-22T01:36:02.201Z,15.90
2022-08-22T01:39:03.737Z,15.90
2022-08-22T01:42:01.468Z,15.80
2022-08-22T01:44:50.739Z,15.70
2022-08-22T01:47:21.596Z,15.70
2022-08-22T01:49:55.103Z,15.70
2022-08-22T01:52:38.529Z,15.70
2022-08-22T01:55:12.365Z,15.70
2022-08-22T01:57:52.747Z,15.70
2022-08-22T02:00:35.251Z,15.70
2022-08-22T02:03:18.528Z,15.70
2022-08-22T02:05:54.321Z,15.70
2022-08-22T02:08:34.869Z,15.60
2022-08-22T02:11:06.315Z,15.70
2022-08-22T02:13:55.343Z,15.70
2022-08-22T02:16:33.521Z,15.60
2022-08-22T02:19:19.264Z,15.60
2022-08-22T02:21:58.976Z,15.60
2022-08-22T02:24:42.840Z,15.50
2022-08-22T02:27:17.900Z,15.50
2022-08-22T02:29:50.102Z,15.40
2022-08-22T02:32:23.673Z,15.40
2022-08-22T02:35:01.531Z,15.40
2022-08-22T02:37:41.512Z,15.40
2022-08-22T02:40:21.571Z,15.30
2022-08-22T02:42:56.976Z,15.30
2022-08-22T02:45:31.940Z,15.20
2022-08-22T02:48:05.292Z,15.30
2022-08-22T02:50:41.890Z,15.10
2022-08-22T02:53:15.109Z,15.20
2022-08-22T02:55:55.181Z,15.10
2022-08-22T02:58:36.389Z,15.10
2022-08-22T03:01:21.853Z,15.10
2022-08-22T03:03:51.185Z,15.00
2022-08-22T03:06:41.277Z,14.90
2022-08-22T03:09:23.009Z,14.80
2022-08-22T03:12:05.361Z,14.70
2022-08-22T03:14:39.866Z,14.60
2022-08-22T03:17:14.169Z,14.60
2022-08-22T03:19:52.356Z,14.60
2022-08-22T03:22:26.296Z,14.60
2022-08-22T03:24:57.714Z,14.60
2022-08-22T03:27:34.400Z,14.70
2022-08-22T03:30:06.913Z,14.60
2022-08-22T03:32:54.462Z,14.60
2022-08-22T03:35:36.846Z,14.60
2022-08-22T03:38:19.514Z,14.60
2022-08-22T03:41:17.682Z,14.60
2022-08-22T03:44:04.819Z,14.60
2022-08-22T03:46:53.521Z,14.60
2022-08-22T03:49:49.789Z,14.60
2022-08-22T03:52:35.051Z,14.60
2022-08-22T03:55:26.490Z,14.70
2022-08-22T03:58:27.419Z,14.70
2022-08-22T04:01:21.797Z,14.60
2022-08-22T04:04:31.641Z,14.50
2022-08-22T04:07:35.173Z,14.50
2022-08-22T04:10:39.371Z,14.40
2022-08-22T04:13:43.301Z,14.40
2022-08-22T04:16:24.522Z,14.40
2022-08-22T04:19:12.145Z,14.40
2022-08-22T04:21:59.075Z,14.40
2022-08-22T04:24:51.925Z,14.40
2022-08-22T04:27:26.489Z,14.40
2022-08-22T04:29:59.686Z,14.40
2022-08-22T04:32:36.419Z,14.40
2022-08-22T04:35:09.965Z,14.40
2022-08-22T04:37:46.208Z,14.30
2022-08-22T04:40:22.388Z,14.30
2022-08-22T04:42:55.042Z,14.20
2022-08-22T04:45:28.404Z,14.20
2022-08-22T04:48:04.357Z,14.20
2022-08-22T04:50:43.129Z,14.10
2022-08-22T04:53:23.119Z,14.10
2022-08-22T04:56:07.108Z,14.20
2022-08-22T04:58:46.844Z,14.20
2022-08-22T05:01:18.917Z,14.30
2022-08-22T05:03:54.786Z,14.30
2022-08-22T05:06:26.479Z,14.30
2022-08-22T05:08:56.784Z,14.30
2022-08-22T05:11:25.496Z,14.40
2022-08-22T05:13:58.382Z,14.40
2022-08-22T05:16:31.452Z,14.50
2022-08-22T05:19:04.453Z,14.50
2022-08-22T05:21:36.192Z,14.60
2022-08-22T05:24:08.741Z,14.70
2022-08-22T05:26:40.925Z,14.70
2022-08-22T05:29:12.041Z,14.80
2022-08-22T05:31:48.365Z,14.90
2022-08-22T05:34:21.216Z,15.00
2022-08-22T05:36:55.470Z,15.00
2022-08-22T05:39:28.056Z,15.10
2022-08-22T05:41:58.104Z,15.20
2022-08-22T05:44:29.107Z,15.30
2022-08-22T05:47:02.656Z,15.40
2022-08-22T05:49:41.369Z,15.40
2022-08-22T05:52:16.313Z,15.50
2022-08-22T05:54:53.458Z,15.60
2022-08-22T05:57:28.787Z,15.70
2022-08-22T06:00:04.284Z,15.70
2022-08-22T06:02:48.472Z,15.80
2022-08-22T06:05:24.285Z,15.90
2022-08-22T06:08:01.816Z,16.00
2022-08-22T06:10:37.484Z,16.10
2022-08-22T06:13:11.855Z,16.20
2022-08-22T06:15:48.560Z,16.30
2022-08-22T06:18:20.733Z,16.40
2022-08-22T06:20:54.537Z,16.50
2022-08-22T06:23:25.948Z,16.60
2022-08-22T06:25:58.165Z,16.70
2022-08-22T06:28:32.477Z,16.80
2022-08-22T06:31:02.145Z,16.90
2022-08-22T06:33:33.220Z,17.10
2022-08-22T06:36:25.840Z,17.20
2022-08-22T06:39:02.856Z,17.30
2022-08-22T06:41:34.042Z,17.40
2022-08-22T06:44:04.443Z,17.30
2022-08-22T06:46:36.697Z,17.60
2022-08-22T06:49:07.080Z,17.80
2022-08-22T06:51:38.864Z,17.90
2022-08-22T06:54:12.297Z,17.90
2022-08-22T06:56:45.203Z,18.10
2022-08-22T06:59:16.725Z,18.20
2022-08-22T07:01:52.318Z,18.30
2022-08-22T07:04:26.382Z,18.40
2022-08-22T07:06:59.842Z,18.50
2022-08-22T07:09:29.840Z,18.60
2022-08-22T07:12:01.229Z,18.70
2022-08-22T07:14:32.817Z,18.90
2022-08-22T07:17:03.040Z,19.10
2022-08-22T07:19:34.425Z,19.20
2022-08-22T07:22:13.372Z,19.30
2022-08-22T07:24:47.121Z,19.40
2022-08-22T07:27:31.297Z,19.50
2022-08-22T07:30:09.945Z,19.60
2022-08-22T07:32:50.043Z,19.70
2022-08-22T07:35:24.033Z,19.90
2022-08-22T07:38:03.477Z,20.00
2022-08-22T07:40:40.177Z,20.20
2022-08-22T07:43:26.271Z,20.30
2022-08-22T07:45:58.057Z,20.50
2022-08-22T07:48:30.733Z,20.70
2022-08-22T07:51:03.101Z,20.80
2022-08-22T07:53:40.191Z,21.00
2022-08-22T07:56:13.420Z,21.10
2022-08-22T07:58:43.632Z,21.30
2022-08-22T08:01:16.804Z,21.30
2022-08-22T08:03:52.396Z,21.50
2022-08-22T08:06:23.077Z,21.60
2022-08-22T08:08:54.362Z,21.70
2022-08-22T08:11:24.957Z,21.90
2022-08-22T08:13:59.089Z,22.00
2022-08-22T08:16:31.628Z,22.10
2022-08-22T08:19:00.872Z,22.20
2022-08-22T08:21:32.077Z,22.30
2022-08-22T08:24:03.042Z,22.40
2022-08-22T08:26:34.016Z,22.60
2022-08-22T08:29:03.049Z,22.70
2022-08-22T08:31:34.005Z,22.80
2022-08-22T08:34:07.220Z,22.90
2022-08-22T08:36:52.128Z,23.10
2022-08-22T08:39:28.567Z,23.30
2022-08-22T08:42:26.220Z,23.40
2022-08-22T08:45:19.127Z,23.60
2022-08-22T08:48:00.364Z,23.80
2022-08-22T08:50:43.205Z,23.90
2022-08-22T08:53:36.320Z,24.00
2022-08-22T08:56:16.581Z,24.00
2022-08-22T08:58:55.602Z,24.10
2022-08-22T09:01:45.287Z,24.10
2022-08-22T09:04:40.365Z,24.20
2022-08-22T09:07:36.426Z,24.40
2022-08-22T09:10:36.831Z,24.40
2022-08-22T09:13:29.538Z,24.40
2022-08-22T09:16:20.717Z,24.50
2022-08-22T09:19:25.505Z,24.50
2022-08-22T09:22:18.026Z,24.60
2022-08-22T09:25:12.506Z,24.70
2022-08-22T09:27:50.140Z,24.90
2022-08-22T09:33:16.968Z,25.00
2022-08-22T09:35:54.863Z,25.10
2022-08-22T09:38:34.616Z,25.00
2022-08-22T09:40:15.634Z,25.00
2022-08-22T09:41:18.096Z,25.00
2022-08-22T09:43:53.037Z,24.90
2022-08-22T09:46:31.576Z,25.00
2022-08-22T09:49:11.471Z,25.10
2022-08-22T09:51:47.715Z,25.40
2022-08-22T09:54:23.772Z,25.50
2022-08-22T09:57:07.973Z,25.60
2022-08-22T10:00:05.631Z,25.70
2022-08-22T10:02:43.283Z,25.70
2022-08-22T10:05:39.459Z,25.70
2022-08-22T10:08:15.246Z,25.60
2022-08-22T10:11:23.795Z,25.60
2022-08-22T10:14:00.547Z,25.50
2022-08-22T10:16:54.577Z,25.40
2022-08-22T10:19:29.617Z,25.30
2022-08-22T10:22:30.861Z,25.20
2022-08-22T10:25:08.701Z,25.10
2022-08-22T10:27:57.593Z,25.30
2022-08-22T10:30:29.854Z,25.40
2022-08-22T10:33:07.773Z,25.60
2022-08-22T10:35:55.876Z,25.80
2022-08-22T10:38:28.521Z,25.90
2022-08-22T10:41:08.804Z,25.90
2022-08-22T10:43:45.653Z,25.90
2022-08-22T10:46:16.988Z,25.80
2022-08-22T10:48:50.960Z,25.80
2022-08-22T10:51:28.842Z,26.00
2022-08-22T10:54:28.081Z,26.20
2022-08-22T10:57:07.310Z,26.60
2022-08-22T10:59:46.278Z,26.70
2022-08-22T11:02:37.084Z,26.70
2022-08-22T11:05:24.092Z,26.40
2022-08-22T11:08:10.741Z,26.20
2022-08-22T11:10:55.906Z,26.20
2022-08-22T11:13:32.403Z,26.30
2022-08-22T11:16:10.659Z,26.40
2022-08-22T11:18:58.637Z,26.60
2022-08-22T11:21:46.076Z,26.80
2022-08-22T11:24:46.612Z,27.10
2022-08-22T11:27:38.304Z,27.30
2022-08-22T11:30:18.782Z,27.50
2022-08-22T11:33:11.532Z,27.50
2022-08-22T11:35:49.906Z,27.50
2022-08-22T11:38:32.644Z,27.50
2022-08-22T11:41:09.821Z,27.70
2022-08-22T11:43:50.768Z,27.80
2022-08-22T11:46:28.264Z,27.80
2022-08-22T11:49:25.762Z,27.70
2022-08-22T11:52:17.350Z,27.60
2022-08-22T11:55:13.669Z,27.50
2022-08-22T11:57:45.372Z,27.30
2022-08-22T12:00:30.595Z,27.00
2022-08-22T12:03:23.341Z,26.80
2022-08-22T12:05:55.508Z,26.70
2022-08-22T12:08:46.149Z,26.60
2022-08-22T12:11:20.540Z,26.50
2022-08-22T12:14:02.364Z,26.50
2022-08-22T12:16:44.986Z,26.60
2022-08-22T12:19:23.304Z,26.70
2022-08-22T12:22:16.877Z,26.90
2022-08-22T12:25:03.711Z,27.00
2022-08-22T12:27:50.895Z,27.10
2022-08-22T12:30:33.128Z,27.10
2022-08-22T12:33:42.298Z,27.20
2022-08-22T12:36:33.757Z,27.20
2022-08-22T12:39:34.069Z,27.20
2022-08-22T12:42:28.513Z,27.00
2022-08-22T12:45:10.321Z,26.80
2022-08-22T12:48:00.809Z,26.70
2022-08-22T12:50:43.443Z,26.60
2022-08-22T12:53:40.887Z,26.40
2022-08-22T12:56:25.161Z,26.30
2022-08-22T12:59:21.837Z,26.20
2022-08-22T13:01:53.809Z,26.10
2022-08-22T13:04:33.513Z,26.00
2022-08-22T13:07:17.244Z,26.00
2022-08-22T13:09:52.425Z,25.90
2022-08-22T13:12:26.657Z,25.90
2022-08-22T13:15:00.691Z,26.00
2022-08-22T13:17:29.393Z,26.10
2022-08-22T13:20:03.785Z,26.10
2022-08-22T13:22:36.018Z,26.30
2022-08-22T13:25:12.054Z,26.40
2022-08-22T13:27:51.130Z,26.50
2022-08-22T13:30:22.218Z,26.60
2022-08-22T13:32:52.770Z,26.70
2022-08-22T13:35:25.474Z,26.90
2022-08-22T13:37:58.764Z,27.00
2022-08-22T13:40:30.895Z,27.20
2022-08-22T13:43:12.051Z,27.30
2022-08-22T13:45:44.212Z,27.50
2022-08-22T13:48:14.476Z,27.60
2022-08-22T13:51:02.477Z,27.80
2022-08-22T13:53:39.539Z,27.80
2022-08-22T13:56:15.532Z,28.00
2022-08-22T13:58:46.213Z,28.10
2022-08-22T14:01:40.480Z,28.10
2022-08-22T14:04:32.005Z,28.10
2022-08-22T14:07:25.450Z,27.90
2022-08-22T14:09:56.735Z,27.70
2022-08-22T14:12:26.833Z,27.60
2022-08-22T14:14:59.412Z,27.40
2022-08-22T14:17:32.242Z,27.20
2022-08-22T14:20:03.784Z,26.90
2022-08-22T14:22:39.997Z,26.70
2022-08-22T14:25:17.144Z,26.50
2022-08-22T14:27:57.882Z,26.30
2022-08-22T14:30:33.432Z,26.30
2022-08-22T14:33:10.148Z,26.40
2022-08-22T14:35:42.949Z,26.30
2022-08-22T14:38:27.403Z,26.20
2022-08-22T14:41:05.299Z,26.10
2022-08-22T14:43:50.773Z,26.00
2022-08-22T14:46:23.993Z,25.90
2022-08-22T14:49:14.591Z,25.90
2022-08-22T14:51:51.127Z,25.80
2022-08-22T14:54:23.212Z,25.70
2022-08-22T14:56:57.917Z,25.70
2022-08-22T14:59:50.357Z,25.60
2022-08-22T15:02:26.321Z,25.60
2022-08-22T15:04:56.335Z,25.50
2022-08-22T15:07:26.598Z,25.50
2022-08-22T15:10:03.215Z,25.30
2022-08-22T15:12:34.717Z,25.40
2022-08-22T15:15:07.497Z,25.40
2022-08-22T15:17:44.387Z,25.30
2022-08-22T15:20:27.677Z,25.30
2022-08-22T15:22:59.138Z,25.20
2022-08-22T15:25:31.173Z,25.30
2022-08-22T15:28:05.198Z,25.40
2022-08-22T15:30:44.299Z,25.40
2022-08-22T15:33:17.592Z,25.40
2022-08-22T15:35:48.474Z,25.50
2022-08-22T15:38:29.125Z,25.50
2022-08-22T15:41:39.421Z,25.40
2022-08-22T15:44:15.078Z,25.50
2022-08-22T15:47:11.721Z,25.40
2022-08-22T15:49:58.201Z,25.40
2022-08-22T15:52:31.225Z,25.30
2022-08-22T15:55:29.105Z,25.30
2022-08-22T15:58:13.290Z,25.30
2022-08-22T16:00:46.773Z,25.30
2022-08-22T16:03:27.338Z,25.30
2022-08-22T16:05:58.734Z,25.30
2022-08-22T16:08:32.990Z,25.30
2022-08-22T16:11:22.671Z,25.20
2022-08-22T16:14:21.331Z,25.10
2022-08-22T16:17:02.953Z,25.10
2022-08-22T16:19:32.278Z,25.00
2022-08-22T16:22:14.259Z,25.00
2022-08-22T16:25:04.464Z,24.90
2022-08-22T16:27:32.528Z,24.80
2022-08-22T16:30:07.484Z,24.80
2022-08-22T16:32:35.820Z,24.70
2022-08-22T16:35:04.128Z,24.60
2022-08-22T16:37:50.132Z,24.50
2022-08-22T16:40:27.095Z,24.40
2022-08-22T16:43:16.133Z,24.30
2022-08-22T16:45:46.283Z,24.20
2022-08-22T16:48:33.821Z,24.10
2022-08-22T16:51:13.509Z,23.90
2022-08-22T16:54:08.634Z,24.00
2022-08-22T16:56:46.288Z,23.90
2022-08-22T16:59:40.228Z,23.90
2022-08-22T17:02:25.815Z,23.90
2022-08-22T17:05:04.804Z,23.90
2022-08-22T17:07:49.096Z,23.80
2022-08-22T17:10:36.136Z,23.80
2022-08-22T17:13:26.232Z,23.70
2022-08-22T17:16:18.302Z,23.70
2022-08-22T17:19:02.005Z,23.60
2022-08-22T17:21:33.236Z,23.60
2022-08-22T17:24:09.204Z,23.50
2022-08-22T17:27:03.782Z,23.50
2022-08-22T17:29:43.784Z,23.50
2022-08-22T17:32:19.860Z,23.40
2022-08-22T17:34:57.744Z,23.30
2022-08-22T17:37:36.288Z,23.30
2022-08-22T17:40:20.049Z,23.20
2022-08-22T17:43:26.832Z,23.10
2022-08-22T17:46:12.820Z,23.10
2022-08-22T17:48:48.028Z,23.10
2022-08-22T17:51:28.720Z,22.90
2022-08-22T17:54:02.168Z,22.90
2022-08-22T17:56:35.897Z,22.90
2022-08-22T17:59:12.448Z,22.80
2022-08-22T18:01:48.717Z,22.80
2022-08-22T18:04:27.134Z,22.60
2022-08-22T18:07:05.198Z,22.50
2022-08-22T18:09:39.932Z,22.50
2022-08-22T18:12:19.943Z,22.40
2022-08-22T18:14:53.349Z,22.30
2022-08-22T18:17:29.117Z,22.20
2022-08-22T18:20:07.581Z,22.10
2022-08-22T18:22:44.824Z,21.90
2022-08-22T18:25:31.609Z,21.70
2022-08-22T18:28:04.277Z,21.40
2022-08-22T18:30:36.681Z,21.40
2022-08-22T18:33:09.728Z,21.30
2022-08-22T18:35:43.972Z,21.20
2022-08-22T18:38:26.910Z,21.20
2022-08-22T18:41:04.095Z,21.10
2022-08-22T18:43:38.792Z,21.00
2022-08-22T18:46:41.958Z,20.90
2022-08-22T18:49:45.520Z,20.70
2022-08-22T18:52:20.453Z,20.50
2022-08-22T18:55:11.650Z,20.40
2022-08-22T18:58:12.599Z,20.20
2022-08-22T19:00:53.188Z,20.10
2022-08-22T19:03:35.913Z,19.90
2022-08-22T19:06:24.251Z,19.80
2022-08-22T19:09:14.793Z,19.80
2022-08-22T19:11:50.624Z,19.70
2022-08-22T19:14:34.213Z,19.70
2022-08-22T19:17:28.577Z,19.70
2022-08-22T19:20:18.665Z,19.70
2022-08-22T19:22:51.083Z,19.70
2022-08-22T19:25:26.040Z,19.70
2022-08-22T19:28:26.548Z,19.70
2022-08-22T19:31:22.578Z,19.70
2022-08-22T19:33:51.600Z,19.70
2022-08-22T19:36:32.052Z,19.70
2022-08-22T19:39:03.512Z,19.60
2022-08-22T19:41:52.405Z,19.50
2022-08-22T19:44:37.512Z,19.50
2022-08-22T19:47:13.655Z,19.50
2022-08-22T19:49:50.025Z,19.40
2022-08-22T19:52:27.486Z,19.50
2022-08-22T19:55:03.869Z,19.40
2022-08-22T19:57:45.284Z,19.40
2022-08-22T20:00:18.291Z,19.40
2022-08-22T20:02:59.197Z,19.40
2022-08-22T20:05:36.220Z,19.40
2022-08-22T20:08:22.052Z,19.30
2022-08-22T20:11:05.161Z,19.10
2022-08-22T20:13:36.120Z,19.00
2022-08-22T20:16:15.913Z,18.90
2022-08-22T20:19:01.993Z,18.80
2022-08-22T20:21:53.936Z,18.70
2022-08-22T20:24:27.192Z,18.60
2022-08-22T20:27:13.424Z,18.50
2022-08-22T20:29:49.110Z,18.40
2022-08-22T20:32:22.933Z,18.40
2022-08-22T20:34:56.793Z,18.40
2022-08-22T20:37:45.400Z,18.30
2022-08-22T20:40:53.416Z,18.30
2022-08-22T20:43:17.888Z,18.20
2022-08-22T20:45:57.637Z,18.10
2022-08-22T20:48:35.851Z,18.10
2022-08-22T20:51:05.301Z,18.10
2022-08-22T20:53:34.486Z,18.00
2022-08-22T20:56:03.094Z,18.00
2022-08-22T20:58:38.369Z,17.90
2022-08-22T21:01:07.683Z,17.80
2022-08-22T21:03:41.713Z,17.80
2022-08-22T21:06:15.259Z,17.80
2022-08-22T21:08:45.573Z,17.80
2022-08-22T21:11:40.130Z,17.90
2022-08-22T21:14:20.118Z,17.80
2022-08-22T21:16:48.199Z,17.80
2022-08-22T21:19:25.401Z,17.80
2022-08-22T21:21:53.389Z,17.80
2022-08-22T21:24:21.628Z,17.80
2022-08-22T21:26:56.218Z,17.80
2022-08-22T21:29:31.708Z,17.70
2022-08-22T21:32:12.149Z,17.70
2022-08-22T21:34:45.401Z,17.70
2022-08-22T21:37:15.772Z,17.60
2022-08-22T21:39:47.948Z,17.60
2022-08-22T21:42:24.994Z,17.60
2022-08-22T21:44:59.088Z,17.70
2022-08-22T21:47:31.932Z,17.80
2022-08-22T21:50:04.925Z,17.80
2022-08-22T21:52:34.787Z,17.80
2022-08-22T21:55:17.202Z,17.80
2022-08-22T21:57:45.444Z,17.70
2022-08-22T22:00:44.279Z,17.80
2022-08-22T22:03:19.371Z,17.80
2022-08-22T22:05:51.140Z,17.80
2022-08-22T22:08:19.773Z,17.80
2022-08-22T22:10:49.384Z,17.70
2022-08-22T22:13:18.084Z,17.60
2022-08-22T22:15:47.768Z,17.60
2022-08-22T22:18:18.481Z,17.50
2022-08-22T22:20:49.136Z,17.40
2022-08-22T22:23:17.434Z,17.40
2022-08-22T22:25:46.821Z,17.30
2022-08-22T22:28:17.308Z,17.20
2022-08-22T22:30:50.266Z,17.20
2022-08-22T22:33:18.825Z,17.10
2022-08-22T22:35:48.750Z,16.90
2022-08-22T22:38:19.486Z,16.80
2022-08-22T22:40:51.526Z,16.60
2022-08-22T22:43:20.389Z,16.50
2022-08-22T22:45:48.490Z,16.50
2022-08-22T22:48:17.548Z,16.50
2022-08-22T22:50:55.846Z,16.40
2022-08-22T22:53:33.844Z,16.40
2022-08-22T22:56:09.336Z,16.40
2022-08-22T22:58:38.305Z,16.40
2022-08-22T23:01:09.214Z,16.40
2022-08-22T23:03:37.093Z,16.30
2022-08-22T23:06:10.956Z,16.30
2022-08-22T23:08:38.774Z,16.20
2022-08-22T23:11:10.833Z,16.10
2022-08-22T23:13:39.698Z,16.00
2022-08-22T23:16:10.692Z,15.90
2022-08-22T23:18:38.521Z,15.80
2022-08-22T23:21:16.301Z,15.80
2022-08-22T23:23:44.227Z,15.70
2022-08-22T23:26:12.608Z,15.70
2022-08-22T23:28:40.736Z,15.80
2022-08-22T23:31:14.644Z,15.80
2022-08-22T23:33:42.620Z,15.90
2022-08-22T23:36:17.311Z,15.90
2022-08-22T23:38:45.849Z,15.90
2022-08-22T23:41:17.524Z,15.90
2022-08-22T23:43:47.501Z,15.90
2022-08-22T23:46:16.878Z,15.90
2022-08-22T23:48:45.546Z,15.90
2022-08-22T23:51:14.470Z,15.80
2022-08-22T23:53:44.918Z,15.80
2022-08-22T23:56:19.249Z,15.70
2022-08-22T23:58:49.025Z,15.60
